Time;durP1;ratioP1;P1;durP2;ratioP2;P2;SDS_P1;SDS_P2;PMS_P1;PMS_P2;Temp;Humidity;BMP_temperature;BMP_pressure;BME280_temperature;BME280_humidity;BME280_pressure;Samples;Min_cycle;Max_cycle;Signal;HPM_P1;HPM_P2
2021/10/26 00:01:21;;;;;;;34.30;21.92;;;;;;;6.69;67.52;101495.72;5071928;28;20570;-20
2021/10/26 00:03:46;;;;;;;32.58;20.05;;;;;;;6.51;67.82;101487.84;5071825;28;20032;-20
2021/10/26 00:06:12;;;;;;;26.10;18.10;;;;;;;5.96;69.92;101486.31;5071620;28;20078;-20
2021/10/26 00:08:37;;;;;;;28.38;15.93;;;;;;;5.66;70.48;101484.03;5037488;28;20033;-20
2021/10/26 00:11:03;;;;;;;24.88;14.85;;;;;;;5.30;73.25;101473.44;5071438;28;20439;-20
2021/10/26 00:13:29;;;;;;;26.60;15.68;;;;;;;5.24;72.22;101488.94;5071536;28;20051;-20
2021/10/26 00:15:54;;;;;;;30.77;17.27;;;;;;;5.76;70.21;101471.56;5053712;28;20064;-20
2021/10/26 00:18:20;;;;;;;28.55;17.45;;;;;;;5.96;69.40;101477.53;5071474;28;20036;-20
2021/10/26 00:20:45;;;;;;;26.48;17.13;;;;;;;5.86;69.83;101453.75;5071880;28;20055;-23
2021/10/26 00:23:11;;;;;;;31.63;18.00;;;;;;;5.91;68.41;101453.31;5071628;28;20032;-20
2021/10/26 00:25:36;;;;;;;27.83;16.83;;;;;;;5.08;71.32;101451.72;5071162;28;20043;-20
2021/10/26 00:28:02;;;;;;;25.98;16.67;;;;;;;4.75;73.04;101450.53;5071280;28;20107;-20
2021/10/26 00:30:28;;;;;;;24.70;15.75;;;;;;;4.63;73.10;101442.78;5071703;28;20541;-20
2021/10/26 00:32:54;;;;;;;26.45;16.17;;;;;;;4.71;72.62;101449.97;5071046;28;20053;-20
2021/10/26 00:35:20;;;;;;;25.73;15.80;;;;;;;4.18;74.21;101442.66;5070955;28;20017;-20
2021/10/26 00:37:45;;;;;;;27.33;15.25;;;;;;;3.91;74.20;101461.91;5071155;28;20064;-22
2021/10/26 00:40:11;;;;;;;33.78;17.38;;;;;;;4.27;73.76;101447.09;5071000;28;20040;-20
2021/10/26 00:42:37;;;;;;;50.17;25.88;;;;;;;4.92;72.02;101454.19;5071115;28;20041;-20
2021/10/26 00:45:03;;;;;;;39.65;21.48;;;;;;;5.39;70.05;101451.38;5071064;28;20028;-20
2021/10/26 00:47:29;;;;;;;35.50;18.25;;;;;;;5.22;70.63;101455.69;5070714;28;20487;-20
2021/10/26 00:49:54;;;;;;;21.05;12.68;;;;;;;5.30;70.49;101449.66;5071069;28;20024;-20
2021/10/26 00:52:19;;;;;;;22.40;12.43;;;;;;;5.18;71.43;101451.66;5070935;28;20040;-20
2021/10/26 00:54:45;;;;;;;18.90;11.20;;;;;;;5.11;71.88;101440.00;5070558;28;20028;-20
2021/10/26 00:57:11;;;;;;;18.30;11.80;;;;;;;5.40;70.57;101411.53;5070894;28;20044;-20
2021/10/26 00:59:36;;;;;;;17.77;11.32;;;;;;;5.39;71.35;101443.44;5070682;28;20033;-20
2021/10/26 01:02:02;;;;;;;19.95;11.50;;;;;;;5.47;71.95;101445.34;5070864;28;20040;-20
2021/10/26 01:04:27;;;;;;;18.10;10.95;;;;;;;4.96;74.53;101439.69;5052716;28;20033;-20
2021/10/26 01:06:55;;;;;;;18.02;11.45;;;;;;;5.00;74.54;101438.41;5070817;28;20036;-21
2021/10/26 01:09:21;;;;;;;20.90;11.63;;;;;;;5.31;74.27;101430.13;5052849;28;20040;-20
2021/10/26 01:11:46;;;;;;;20.92;12.25;;;;;;;5.79;72.20;101410.38;5070641;28;20037;-20
2021/10/26 01:14:12;;;;;;;18.13;12.05;;;;;;;5.36;73.72;101430.53;5070658;28;20468;-19
2021/10/26 01:16:37;;;;;;;21.25;12.10;;;;;;;5.42;73.83;101422.00;5070371;28;20032;-20
2021/10/26 01:19:03;;;;;;;18.42;11.90;;;;;;;5.71;74.25;101426.19;5070277;28;20147;-20
2021/10/26 01:21:30;;;;;;;26.30;15.07;;;;;;;5.94;71.74;101400.88;5070024;28;20032;-20
2021/10/26 01:23:55;;;;;;;22.20;14.27;;;;;;;5.88;73.30;101422.66;5070095;28;20021;-21
2021/10/26 01:26:21;;;;;;;22.80;14.85;;;;;;;6.46;70.42;101392.09;5052533;28;20101;-20
2021/10/26 01:28:46;;;;;;;24.48;15.57;;;;;;;6.52;70.44;101414.44;5070482;28;20450;-20
2021/10/26 01:31:11;;;;;;;22.45;14.65;;;;;;;6.37;71.45;101407.09;5070090;28;20028;-20
2021/10/26 01:33:37;;;;;;;20.17;13.65;;;;;;;6.55;71.07;101419.44;5069824;28;20048;-20
2021/10/26 01:36:03;;;;;;;20.33;12.43;;;;;;;6.56;71.59;101418.44;5070026;28;20024;-20
2021/10/26 01:38:28;;;;;;;20.73;11.82;;;;;;;6.47;72.04;101407.00;5070042;28;20028;-21
2021/10/26 01:40:53;;;;;;;16.98;11.63;;;;;;;6.59;71.81;101420.78;5070411;28;20032;-20
2021/10/26 01:43:19;;;;;;;17.63;11.45;;;;;;;6.61;70.97;101403.72;5070205;28;20821;-21
2021/10/26 01:45:45;;;;;;;19.83;11.70;;;;;;;6.87;70.37;101408.13;5069962;28;20040;-20
2021/10/26 01:48:10;;;;;;;20.27;12.00;;;;;;;6.24;72.82;101401.41;5069753;28;20111;-20
2021/10/26 01:50:36;;;;;;;16.48;11.32;;;;;;;6.52;71.87;101399.41;5069813;28;20043;-20
2021/10/26 01:53:01;;;;;;;18.13;10.82;;;;;;;6.16;73.16;101393.44;5069421;28;20043;-20
2021/10/26 01:55:27;;;;;;;17.00;10.77;;;;;;;6.22;72.28;101395.44;5069502;28;20112;-20
2021/10/26 01:57:52;;;;;;;18.10;10.68;;;;;;;6.14;72.69;101393.56;5069822;28;20055;-20
2021/10/26 02:00:18;;;;;;;16.05;10.40;;;;;;;5.91;74.24;101392.44;5069734;28;20035;-20
2021/10/26 02:02:48;;;;;;;21.70;11.50;;;;;;;5.62;76.61;101396.19;5069310;28;20040;-20
2021/10/26 02:05:13;;;;;;;19.77;10.93;;;;;;;5.33;77.54;101402.56;5068905;28;20048;-20
2021/10/26 02:07:39;;;;;;;16.80;11.02;;;;;;;5.47;76.53;101390.59;5069409;28;20078;-21
2021/10/26 02:10:05;;;;;;;20.13;11.40;;;;;;;5.13;77.39;101380.72;5069545;28;20056;-21
2021/10/26 02:12:31;;;;;;;17.25;10.95;;;;;;;5.34;77.94;101396.28;5051285;28;20032;-20
2021/10/26 02:14:56;;;;;;;17.90;10.85;;;;;;;5.73;77.01;101397.75;5069717;28;20021;-20
2021/10/26 02:17:21;;;;;;;15.35;10.55;;;;;;;5.75;75.39;101367.50;5068946;28;20036;-20
2021/10/26 02:19:47;;;;;;;20.40;11.95;;;;;;;5.64;76.03;101388.94;5069269;28;20051;-20
2021/10/26 02:22:12;;;;;;;18.60;11.18;;;;;;;5.83;75.57;101382.59;5051564;28;20417;-20
2021/10/26 02:24:38;;;;;;;18.73;11.18;;;;;;;5.78;75.43;101385.72;5069328;28;20024;-20
2021/10/26 02:27:03;;;;;;;17.85;11.60;;;;;;;6.25;74.26;101392.47;5068994;28;20087;-20
2021/10/26 02:29:29;;;;;;;17.40;10.35;;;;;;;5.63;76.28;101395.19;5068869;28;20032;-20
2021/10/26 02:31:54;;;;;;;17.08;9.98;;;;;;;5.58;75.30;101353.31;5068791;28;20505;-20
2021/10/26 02:34:20;;;;;;;17.02;9.77;;;;;;;5.87;76.56;101388.44;5068747;28;20032;-20
2021/10/26 02:36:46;;;;;;;15.68;9.75;;;;;;;6.04;75.56;101391.03;5069032;28;20059;-19
2021/10/26 02:39:12;;;;;;;17.63;9.63;;;;;;;6.32;73.79;101393.50;5069090;28;20032;-20
2021/10/26 02:41:37;;;;;;;13.48;8.82;;;;;;;6.11;74.41;101382.47;5068961;28;20488;-20
2021/10/26 02:44:03;;;;;;;14.35;8.55;;;;;;;5.86;75.93;101384.94;5050887;28;20063;-20
2021/10/26 02:46:29;;;;;;;15.85;9.55;;;;;;;6.18;75.30;101381.69;5050824;28;20025;-20
2021/10/26 02:48:54;;;;;;;14.70;8.75;;;;;;;6.18;75.10;101392.28;5068812;28;20024;-20
2021/10/26 02:51:20;;;;;;;13.82;8.52;;;;;;;6.18;74.47;101391.44;5068255;28;20032;-20
2021/10/26 02:53:45;;;;;;;19.52;9.73;;;;;;;6.17;73.36;101368.59;5068562;28;20028;-21
2021/10/26 02:56:11;;;;;;;17.73;9.07;;;;;;;6.13;74.75;101388.44;5050648;28;20032;-20
2021/10/26 02:58:36;;;;;;;16.95;9.50;;;;;;;6.21;75.27;101380.53;5068770;28;20028;-20
2021/10/26 03:01:02;;;;;;;17.00;9.38;;;;;;;6.27;74.37;101384.38;5068614;28;20143;-20
2021/10/26 03:03:28;;;;;;;14.85;9.35;;;;;;;6.09;75.23;101366.75;5068337;28;20484;-20
2021/10/26 03:05:54;;;;;;;18.00;8.77;;;;;;;6.11;75.48;101369.22;5068355;28;20036;-20
2021/10/26 03:08:19;;;;;;;14.82;9.65;;;;;;;6.43;74.11;101358.75;5050473;28;20068;-20
2021/10/26 03:10:45;;;;;;;17.90;9.85;;;;;;;6.88;72.00;101387.75;5068461;28;20542;-20
2021/10/26 03:13:10;;;;;;;17.25;9.73;;;;;;;6.58;72.31;101374.91;5050534;28;20042;-21
2021/10/26 03:15:36;;;;;;;14.13;7.97;;;;;;;6.65;72.50;101391.00;5067945;28;20029;-21
2021/10/26 03:18:01;;;;;;;13.18;7.85;;;;;;;6.38;74.64;101386.75;5068373;28;20082;-20
2021/10/26 03:20:27;;;;;;;16.23;8.65;;;;;;;6.74;72.48;101386.53;5068189;28;20123;-21
2021/10/26 03:22:53;;;;;;;13.00;8.52;;;;;;;6.47;73.71;101377.84;5068070;28;20021;-21
2021/10/26 03:25:19;;;;;;;16.58;8.63;;;;;;;6.42;74.07;101388.09;5050113;28;20546;-20
2021/10/26 03:27:45;;;;;;;15.13;8.70;;;;;;;6.66;72.83;101373.25;5068252;28;20052;-20
2021/10/26 03:30:10;;;;;;;14.48;9.13;;;;;;;6.47;73.21;101369.06;5050358;28;20547;-20
2021/10/26 03:32:37;;;;;;;16.80;8.38;;;;;;;6.08;74.31;101370.38;5067953;28;20055;-20
2021/10/26 03:35:03;;;;;;;14.52;8.88;;;;;;;6.04;74.96;101359.25;5066918;28;20032;-20
2021/10/26 03:37:28;;;;;;;15.73;8.23;;;;;;;6.00;74.00;101335.91;5067725;28;20040;-21
2021/10/26 03:39:55;;;;;;;16.50;9.25;;;;;;;6.27;75.05;101371.94;5049000;28;20579;-20
2021/10/26 03:42:24;;;;;;;13.38;8.50;;;;;;;6.36;73.87;101368.38;5068341;28;20036;-20
2021/10/26 03:44:50;;;;;;;15.48;8.90;;;;;;;6.55;74.05;101361.13;5067728;28;20025;-20
2021/10/26 03:47:15;;;;;;;13.80;8.52;;;;;;;6.63;73.69;101374.41;5068272;28;20510;-21
2021/10/26 03:49:41;;;;;;;14.32;9.07;;;;;;;6.86;73.03;101369.34;5067773;28;20032;-20
2021/10/26 03:52:07;;;;;;;13.63;8.73;;;;;;;6.65;72.82;101351.22;5068082;28;20036;-20
2021/10/26 03:54:32;;;;;;;15.25;8.38;;;;;;;6.95;72.39;101372.84;5068327;28;20024;-21
2021/10/26 03:56:58;;;;;;;16.98;9.20;;;;;;;6.72;73.10;101373.47;5067777;28;20028;-20
2021/10/26 03:59:29;;;;;;;16.58;9.60;;;;;;;6.35;74.67;101374.63;5067576;28;20028;-20
2021/10/26 04:01:55;;;;;;;15.32;8.90;;;;;;;6.53;74.16;101368.41;5068001;28;20043;-20
2021/10/26 04:04:21;;;;;;;15.52;9.27;;;;;;;6.54;73.62;101376.22;5067649;28;20028;-20
2021/10/26 04:06:47;;;;;;;14.00;9.55;;;;;;;6.43;74.56;101374.66;5068136;28;20037;-20
2021/10/26 04:09:13;;;;;;;14.50;9.05;;;;;;;6.41;74.14;101381.94;5067896;28;20127;-20
2021/10/26 04:12:24;;;;;;;19.17;9.57;;;;;;;5.86;76.16;101366.41;5067777;28;20101;-19
2021/10/26 04:14:25;;;;;;;15.98;8.80;;;;;;;6.11;76.14;101363.91;5056652;28;20036;-20
2021/10/26 04:16:50;;;;;;;19.35;9.80;;;;;;;6.22;75.27;101372.44;5067603;28;20036;-20
2021/10/26 04:19:16;;;;;;;19.08;10.82;;;;;;;6.49;73.90;101377.69;5067455;28;20028;-21
2021/10/26 04:21:41;;;;;;;19.27;11.05;;;;;;;6.59;73.36;101362.47;5067906;28;20071;-20
2021/10/26 04:24:07;;;;;;;17.77;10.90;;;;;;;6.86;72.43;101364.03;5067455;28;20028;-20
2021/10/26 04:26:32;;;;;;;19.98;10.70;;;;;;;6.69;72.00;101372.97;5068049;28;20071;-20
2021/10/26 04:28:58;;;;;;;16.00;10.70;;;;;;;6.57;72.81;101364.47;5069248;28;20033;-20
2021/10/26 04:31:23;;;;;;;15.52;9.27;;;;;;;6.71;72.56;101355.88;5070793;28;20060;-20
2021/10/26 04:33:49;;;;;;;24.30;11.75;;;;;;;6.62;72.16;101367.47;5071296;28;20028;-21
2021/10/26 04:36:14;;;;;;;20.33;12.45;;;;;;;6.64;72.25;101365.50;5071555;28;20033;-20
2021/10/26 04:38:40;;;;;;;24.45;13.52;;;;;;;6.51;71.86;101359.81;5071290;28;20032;-20
2021/10/26 04:41:08;;;;;;;28.55;15.50;;;;;;;6.66;71.97;101350.25;5071095;28;20029;-20
2021/10/26 04:43:36;;;;;;;24.50;15.35;;;;;;;6.76;71.41;101358.91;5070978;28;20028;-20
2021/10/26 04:46:02;;;;;;;;;;;;;;;6.89;70.37;101357.59;5071521;28;20041;-20
2021/10/26 04:48:27;;;;;;;26.13;15.32;;;;;;;6.94;69.90;101352.63;5071089;28;19915;-20
2021/10/26 04:50:53;;;;;;;21.63;13.88;;;;;;;6.65;70.78;101340.63;5070787;28;20032;-21
2021/10/26 04:53:19;;;;;;;22.15;13.45;;;;;;;6.76;71.05;101348.28;5070778;28;20040;-20
2021/10/26 04:55:45;;;;;;;21.35;11.68;;;;;;;6.93;70.64;101351.81;5070705;28;20024;-20
2021/10/26 04:58:11;;;;;;;20.83;12.40;;;;;;;6.76;70.56;101358.03;5070858;28;20098;-20
2021/10/26 05:00:36;;;;;;;19.77;12.23;;;;;;;6.52;72.13;101348.19;5070728;28;20035;-20
2021/10/26 05:03:02;;;;;;;18.10;11.30;;;;;;;6.48;71.71;101346.84;5070458;28;20565;-20
2021/10/26 05:05:27;;;;;;;17.50;11.00;;;;;;;6.11;72.55;101345.38;5052529;28;20032;-20
2021/10/26 05:07:53;;;;;;;18.95;11.68;;;;;;;6.32;72.52;101345.81;5070728;28;20036;-20
2021/10/26 05:10:18;;;;;;;22.27;12.77;;;;;;;5.79;73.98;101345.03;5070923;28;20032;-20
2021/10/26 05:12:44;;;;;;;21.20;11.98;;;;;;;6.35;71.65;101355.25;5052796;28;20032;-20
2021/10/26 05:15:10;;;;;;;24.40;13.18;;;;;;;6.29;71.74;101362.03;5070586;28;20396;-23
2021/10/26 05:17:39;;;;;;;24.08;14.82;;;;;;;6.45;71.01;101369.22;5070131;28;20106;-20
2021/10/26 05:20:06;;;;;;;22.67;15.32;;;;;;;6.18;72.32;101364.97;5070014;28;20119;-20
2021/10/26 05:22:32;;;;;;;21.20;11.88;;;;;;;5.99;73.68;101372.16;5070263;28;20037;-20
2021/10/26 05:24:57;;;;;;;22.17;13.50;;;;;;;5.81;73.21;101368.69;5070183;28;20036;-20
2021/10/26 05:27:23;;;;;;;22.75;14.70;;;;;;;5.74;73.87;101372.94;5070055;28;20033;-20
2021/10/26 05:29:48;;;;;;;26.17;16.45;;;;;;;5.51;75.01;101360.19;5070695;28;20748;-21
2021/10/26 05:32:14;;;;;;;28.10;17.63;;;;;;;5.46;75.40;101370.44;5070543;28;20471;-22
2021/10/26 05:34:40;;;;;;;31.45;19.30;;;;;;;5.52;75.28;101377.75;5070018;28;20031;-20
2021/10/26 05:37:05;;;;;;;30.00;18.27;;;;;;;5.38;76.18;101373.00;5069967;28;20032;-20
2021/10/26 05:39:31;;;;;;;54.35;30.70;;;;;;;5.71;75.79;101354.72;5069333;28;20067;-20
2021/10/26 05:41:56;;;;;;;41.30;22.83;;;;;;;5.94;74.78;101374.38;5051631;28;20503;-20
2021/10/26 05:44:22;;;;;;;34.15;20.73;;;;;;;6.18;73.22;101381.69;5069669;28;20029;-20
2021/10/26 05:46:48;;;;;;;40.55;22.63;;;;;;;6.17;73.15;101373.88;5069694;28;20028;-20
2021/10/26 05:49:13;;;;;;;31.83;19.27;;;;;;;6.09;73.07;101379.13;5069678;28;20036;-21
2021/10/26 05:51:39;;;;;;;32.92;19.00;;;;;;;5.84;74.48;101384.25;5051396;28;20475;-21
2021/10/26 05:54:04;;;;;;;34.05;21.58;;;;;;;5.93;74.19;101382.50;5069665;28;20028;-20
2021/10/26 05:56:30;;;;;;;29.75;19.02;;;;;;;5.49;76.08;101370.09;5069431;28;20040;-20
2021/10/26 05:58:55;;;;;;;25.80;17.02;;;;;;;5.26;75.95;101379.50;5051363;28;20034;-20
2021/10/26 06:01:22;;;;;;;38.10;22.88;;;;;;;5.67;77.18;101393.06;5069313;28;20033;-20
2021/10/26 06:03:48;;;;;;;35.83;20.35;;;;;;;5.94;75.23;101369.09;5069136;28;20475;-20
2021/10/26 06:06:13;;;;;;;42.95;25.23;;;;;;;6.10;74.14;101399.34;5069558;28;20059;-21
2021/10/26 06:08:40;;;;;;;27.35;18.30;;;;;;;6.11;74.72;101395.69;5069146;28;20048;-22
2021/10/26 06:11:11;;;;;;;26.25;16.10;;;;;;;5.99;74.64;101390.69;5069723;28;20033;-20
2021/10/26 06:13:42;;;;;;;26.85;16.77;;;;;;;6.15;75.07;101383.81;5069310;28;20024;-20
2021/10/26 06:16:08;;;;;;;34.88;21.58;;;;;;;6.49;73.34;101390.94;5069511;28;20504;-20
2021/10/26 06:18:33;;;;;;;37.10;21.45;;;;;;;6.75;72.37;101383.75;5069545;28;20037;-20
2021/10/26 06:20:59;;;;;;;25.63;16.17;;;;;;;6.70;71.36;101401.97;5069243;28;20855;-20
2021/10/26 06:23:25;;;;;;;21.52;15.38;;;;;;;6.94;71.65;101401.19;5068711;28;20033;-21
2021/10/26 06:25:51;;;;;;;25.80;15.52;;;;;;;6.89;71.33;101400.84;5068100;28;20043;-20
2021/10/26 06:28:16;;;;;;;26.30;16.33;;;;;;;6.61;72.03;101387.00;5068910;28;20058;-20
2021/10/26 06:30:42;;;;;;;23.17;15.25;;;;;;;6.62;72.38;101391.34;5069103;28;20450;-21
2021/10/26 06:33:08;;;;;;;23.63;15.30;;;;;;;6.61;72.50;101414.34;5068979;28;20119;-20
2021/10/26 06:35:34;;;;;;;26.85;16.17;;;;;;;6.59;73.31;101389.81;5068937;28;20575;-21
2021/10/26 06:38:00;;;;;;;24.85;14.95;;;;;;;6.70;72.10;101407.25;5068980;28;20024;-20
2021/10/26 06:40:25;;;;;;;24.55;14.40;;;;;;;6.94;71.47;101393.22;5068769;28;20028;-20
2021/10/26 06:42:51;;;;;;;26.35;14.77;;;;;;;6.97;70.61;101410.66;5050597;28;20036;-21
2021/10/26 06:45:16;;;;;;;22.55;14.30;;;;;;;6.92;71.89;101410.28;5068420;28;20025;-20
2021/10/26 06:47:42;;;;;;;22.20;14.70;;;;;;;6.72;73.47;101394.69;5068690;28;20033;-20
2021/10/26 06:50:08;;;;;;;21.95;13.75;;;;;;;6.97;72.36;101398.22;5068549;28;20035;-20
2021/10/26 06:52:34;;;;;;;23.15;14.40;;;;;;;7.41;70.88;101405.06;5050211;28;20025;-20
2021/10/26 06:55:00;;;;;;;24.45;15.30;;;;;;;7.35;70.43;101395.13;5068574;28;20086;-21
2021/10/26 06:57:27;;;;;;;24.30;15.18;;;;;;;7.71;69.84;101400.94;5050189;28;20021;-20
2021/10/26 06:59:53;;;;;;;24.60;14.32;;;;;;;8.10;67.56;101396.72;5068347;28;20056;-20
2021/10/26 07:02:18;;;;;;;21.73;12.98;;;;;;;7.98;66.72;101390.94;5068281;28;20039;-20
2021/10/26 07:04:45;;;;;;;19.10;13.15;;;;;;;8.04;66.36;101380.44;5068326;28;20074;-20
2021/10/26 07:07:10;;;;;;;22.08;13.40;;;;;;;7.95;67.45;101378.81;5068201;28;20025;-20
2021/10/26 07:09:35;;;;;;;26.60;16.45;;;;;;;7.98;66.80;101383.78;5068792;28;20417;-22
2021/10/26 07:12:01;;;;;;;22.70;13.80;;;;;;;7.91;67.02;101379.34;5068607;28;20036;-19
2021/10/26 07:14:27;;;;;;;23.52;13.32;;;;;;;8.55;66.32;101408.56;5068533;28;20030;-20
2021/10/26 07:16:52;;;;;;;21.45;15.13;;;;;;;8.34;66.55;101372.72;5068320;28;20032;-20
2021/10/26 07:19:18;;;;;;;32.35;13.13;;;;;;;8.25;66.42;101392.34;5067829;28;20047;-20
2021/10/26 07:21:43;;;;;;;20.63;13.10;;;;;;;8.27;65.50;101393.00;5068208;28;20428;-20
2021/10/26 07:24:10;;;;;;;18.88;12.15;;;;;;;8.63;64.77;101395.22;5068204;28;20040;-20
2021/10/26 07:26:36;;;;;;;17.70;11.73;;;;;;;8.78;63.25;101396.16;5068133;28;20032;-21
2021/10/26 07:29:01;;;;;;;20.33;11.65;;;;;;;8.78;62.91;101372.19;5068323;28;20273;-20
2021/10/26 07:31:27;;;;;;;19.95;12.80;;;;;;;8.85;65.56;101378.50;5067606;28;20036;-20
2021/10/26 07:33:56;;;;;;;18.52;11.75;;;;;;;9.06;62.89;101395.66;5067926;28;20036;-21
2021/10/26 07:36:25;;;;;;;20.50;13.38;;;;;;;8.94;63.69;101389.09;5068047;28;20063;-20
2021/10/26 07:38:58;;;;;;;20.17;13.35;;;;;;;8.87;64.86;101386.31;5068090;28;20060;-20
2021/10/26 07:41:23;;;;;;;20.42;12.27;;;;;;;9.14;62.86;101390.28;5067873;28;20067;-21
2021/10/26 07:43:49;;;;;;;19.85;12.88;;;;;;;8.89;63.82;101378.13;5067774;28;20052;-20
2021/10/26 07:46:14;;;;;;;17.73;11.20;;;;;;;8.83;63.21;101369.88;5067775;28;20086;-20
2021/10/26 07:48:39;;;;;;;19.60;11.40;;;;;;;8.92;64.31;101372.47;5067928;28;20036;-20
2021/10/26 07:51:05;;;;;;;14.13;9.65;;;;;;;9.09;62.82;101363.38;5068003;28;20090;-20
2021/10/26 07:53:31;;;;;;;17.48;10.85;;;;;;;9.41;62.76;101372.13;5067736;28;20028;-20
2021/10/26 07:55:59;;;;;;;17.20;11.32;;;;;;;9.64;61.46;101362.28;5049144;28;20032;-20
2021/10/26 07:58:25;;;;;;;;;;;;;;;9.91;60.33;101372.47;5050979;28;20128;-20
2021/10/26 08:00:52;;;;;;;16.08;10.40;;;;;;;9.71;61.41;101353.56;5067771;28;20421;-19
2021/10/26 08:03:17;;;;;;;23.27;18.00;;;;;;;9.74;60.92;101339.88;5050372;28;20101;-20
2021/10/26 08:05:43;;;;;;;18.65;11.15;;;;;;;10.04;60.33;101372.69;5071956;28;20029;-21
2021/10/26 08:08:10;;;;;;;20.83;13.38;;;;;;;10.26;60.26;101370.94;5071702;28;20044;-20
2021/10/26 08:10:36;;;;;;;17.43;10.23;;;;;;;10.63;59.19;101366.53;5071943;28;20488;-20
2021/10/26 08:13:01;;;;;;;27.42;18.48;;;;;;;10.58;58.08;101363.56;5071856;28;20037;-20
2021/10/26 08:15:27;;;;;;;17.17;11.05;;;;;;;10.66;57.60;101371.47;5071334;28;20230;-20
2021/10/26 08:17:53;;;;;;;14.90;10.57;;;;;;;10.85;56.97;101362.88;5071609;28;20029;-20
2021/10/26 08:20:18;;;;;;;46.92;32.10;;;;;;;10.52;58.20;101361.66;5071664;28;20036;-20
2021/10/26 08:22:44;;;;;;;28.13;18.92;;;;;;;10.94;57.66;101360.09;5071857;28;20055;-21
2021/10/26 08:25:26;;;;;;;48.47;37.17;;;;;;;10.59;59.05;101339.38;5071488;28;20044;-20
2021/10/26 08:27:54;;;;;;;17.00;10.32;;;;;;;10.29;59.35;101341.25;5071482;28;20169;-20
2021/10/26 08:30:34;;;;;;;15.32;10.13;;;;;;;11.01;56.65;101356.47;5071394;28;20028;-20
2021/10/26 08:33:13;;;;;;;18.00;9.40;;;;;;;11.39;56.22;101352.72;5071369;28;20045;-21
2021/10/26 08:35:39;;;;;;;18.00;8.90;;;;;;;11.69;57.42;101344.50;5071080;28;20036;-20
2021/10/26 08:38:05;;;;;;;13.75;8.70;;;;;;;11.96;54.18;101341.03;5071387;28;20043;-19
2021/10/26 08:40:33;;;;;;;14.45;8.75;;;;;;;11.95;54.48;101334.03;5071001;28;20028;-20
2021/10/26 08:43:03;;;;;;;13.32;8.85;;;;;;;11.78;54.41;101324.63;5071264;28;20040;-20
2021/10/26 08:45:28;;;;;;;11.13;7.53;;;;;;;11.97;52.83;101332.00;5070828;28;20020;-20
2021/10/26 08:47:54;;;;;;;10.63;7.50;;;;;;;12.17;52.46;101336.59;5071148;28;20078;-20
2021/10/26 08:50:20;;;;;;;10.68;6.55;;;;;;;12.29;51.15;101339.53;5053213;28;20028;-20
2021/10/26 08:52:46;;;;;;;10.73;7.05;;;;;;;12.28;52.66;101344.09;5070792;28;20041;-20
2021/10/26 08:55:13;;;;;;;10.95;6.22;;;;;;;12.45;50.64;101323.16;5070754;28;20040;-21
2021/10/26 08:57:39;;;;;;;11.32;6.57;;;;;;;12.66;50.02;101338.25;5070609;28;20032;-20
2021/10/26 09:00:08;;;;;;;10.98;6.25;;;;;;;12.63;50.68;101335.97;5052820;28;20043;-21
2021/10/26 09:02:40;;;;;;;14.07;8.13;;;;;;;12.97;50.19;101326.16;5053391;28;20088;-20
2021/10/26 09:05:15;;;;;;;11.10;6.72;;;;;;;13.01;48.49;101327.41;5070934;28;20029;-21
2021/10/26 09:07:40;;;;;;;9.60;5.65;;;;;;;12.95;47.15;101338.91;5070490;28;20036;-20
2021/10/26 09:10:11;;;;;;;10.27;6.60;;;;;;;12.59;50.07;101303.44;5070529;28;20036;-20
2021/10/26 09:17:53;;;;;;;10.77;6.15;;;;;;;12.63;49.00;101309.22;5070782;28;20043;-20
2021/10/26 09:20:23;;;;;;;10.75;6.45;;;;;;;12.76;48.74;101298.53;5052443;28;20024;-20
2021/10/26 09:22:54;;;;;;;9.38;6.70;;;;;;;12.99;49.38;101291.97;5070577;28;20059;-20
2021/10/26 09:25:20;;;;;;;11.60;6.65;;;;;;;13.39;48.17;101286.66;5070217;28;20025;-20
2021/10/26 09:27:47;;;;;;;10.30;6.50;;;;;;;13.35;48.34;101269.34;5070293;28;20167;-20
2021/10/26 09:30:22;;;;;;;12.75;8.02;;;;;;;13.61;48.91;101255.09;5070304;28;20032;-20
2021/10/26 09:32:48;;;;;;;10.10;6.43;;;;;;;14.14;47.06;101272.84;5070085;28;20044;-20
2021/10/26 09:35:16;;;;;;;11.27;6.50;;;;;;;14.29;46.55;101273.41;5070436;28;20488;-20
2021/10/26 09:37:48;;;;;;;8.20;5.43;;;;;;;13.85;46.20;101269.66;5069569;28;20098;-20
2021/10/26 09:40:14;;;;;;;14.90;9.18;;;;;;;14.20;46.61;101263.94;5070281;28;20029;-20
2021/10/26 09:42:44;;;;;;;8.77;5.20;;;;;;;14.04;45.55;101258.03;5070328;28;20482;-21
2021/10/26 09:45:27;;;;;;;10.60;6.05;;;;;;;13.55;47.40;101240.66;5069805;28;20021;-21
2021/10/26 09:47:59;;;;;;;10.77;6.28;;;;;;;14.41;45.27;101258.28;5069981;28;20128;-20
2021/10/26 09:50:31;;;;;;;10.75;5.97;;;;;;;14.24;44.89;101262.47;5067984;28;20028;-21
2021/10/26 09:53:07;;;;;;;7.53;5.55;;;;;;;14.18;46.28;101257.97;5090166;28;20077;-21
2021/10/26 09:55:39;;;;;;;8.85;5.10;;;;;;;14.31;47.35;101247.19;5089698;28;20043;-20
2021/10/26 09:58:09;;;;;;;7.57;5.30;;;;;;;14.79;43.37;101251.25;5089552;28;20032;-21
2021/10/26 10:00:42;;;;;;;8.35;5.30;;;;;;;14.44;45.99;101231.03;5089614;28;20028;-20
2021/10/26 10:03:24;;;;;;;10.07;4.90;;;;;;;14.96;44.22;101232.75;5089481;28;20395;-20
2021/10/26 10:05:56;;;;;;;10.18;5.35;;;;;;;15.61;43.09;101237.69;5089507;28;20040;-20
2021/10/26 10:08:24;;;;;;;8.75;5.50;;;;;;;15.88;41.37;101230.19;5089539;28;20024;-20
2021/10/26 10:11:07;;;;;;;9.05;5.78;;;;;;;15.84;42.28;101223.63;5089867;28;20471;-20
2021/10/26 10:13:39;;;;;;;8.45;6.28;;;;;;;15.33;43.26;101217.53;5089531;28;20115;-20
2021/10/26 10:16:07;;;;;;;6.72;4.07;;;;;;;14.36;45.42;101215.16;5089166;28;20028;-20
2021/10/26 10:18:32;;;;;;;7.45;4.30;;;;;;;14.09;46.40;101198.38;5054615;28;20031;-21
2021/10/26 10:20:58;;;;;;;10.57;5.03;;;;;;;14.09;46.01;101206.44;5071492;28;20029;-20
2021/10/26 10:23:24;;;;;;;10.95;5.07;;;;;;;14.85;47.78;101193.97;5088915;28;20024;-20
2021/10/26 10:25:51;;;;;;;6.55;3.88;;;;;;;14.83;44.66;101179.94;5070451;28;20043;-20
2021/10/26 10:28:21;;;;;;;6.65;4.05;;;;;;;15.43;42.61;101179.38;5070989;28;20035;-21
2021/10/26 10:30:50;;;;;;;7.85;4.35;;;;;;;16.16;42.35;101194.66;5071254;28;20036;-20
2021/10/26 10:33:19;;;;;;;6.22;4.00;;;;;;;15.99;42.39;101189.06;5089224;28;20622;-20
2021/10/26 10:35:48;;;;;;;5.78;3.00;;;;;;;15.52;41.30;101169.13;5070709;28;20055;-21
2021/10/26 10:38:13;;;;;;;5.60;3.90;;;;;;;15.56;41.22;101178.41;5054738;28;20028;-20
2021/10/26 10:40:41;;;;;;;6.32;3.33;;;;;;;15.70;40.86;101189.84;5054020;28;20028;-22
2021/10/26 10:43:07;;;;;;;6.55;3.88;;;;;;;15.85;42.91;101182.22;5088927;28;20123;-20
2021/10/26 10:45:35;;;;;;;6.00;3.50;;;;;;;15.82;40.68;101177.28;5088901;28;20028;-21
2021/10/26 10:48:29;;;;;;;7.15;4.47;;;;;;;15.89;41.05;101175.31;5088901;28;20395;-20
2021/10/26 10:51:11;;;;;;;6.63;3.58;;;;;;;16.26;40.23;101167.16;5088681;28;20028;-21
2021/10/26 10:53:37;;;;;;;6.30;4.13;;;;;;;16.28;40.11;101159.69;5089200;28;20476;-20
2021/10/26 10:56:12;;;;;;;10.00;3.95;;;;;;;16.56;38.93;101155.53;5088765;28;20036;-22
2021/10/26 10:58:39;;;;;;;8.38;4.53;;;;;;;16.86;39.53;101145.50;5088887;28;20526;-20
2021/10/26 11:01:24;;;;;;;9.02;4.32;;;;;;;16.23;42.52;101151.47;5088593;28;20105;-20
2021/10/26 11:03:51;;;;;;;8.73;4.10;;;;;;;16.07;41.74;101148.38;5088537;28;20035;-20
2021/10/26 11:06:52;;;;;;;8.57;4.10;;;;;;;15.73;42.69;101146.38;5088538;28;20116;-20
2021/10/26 11:09:34;;;;;;;5.43;3.88;;;;;;;15.83;42.62;101142.09;5045893;28;20032;-20
2021/10/26 11:12:13;;;;;;;8.18;4.70;;;;;;;15.66;42.56;101125.72;5084351;28;20036;-20
2021/10/26 11:14:54;;;;;;;7.93;4.28;;;;;;;15.46;41.89;101125.97;5088533;28;20032;-21
2021/10/26 11:17:32;;;;;;;7.90;5.20;;;;;;;15.74;41.16;101121.94;5088577;28;20032;-20
2021/10/26 11:20:29;;;;;;;5.28;3.65;;;;;;;16.10;41.68;101122.06;5088068;28;20491;-20
2021/10/26 11:23:05;;;;;;;7.68;4.10;;;;;;;16.50;40.54;101110.69;5084447;28;20044;-20
2021/10/26 11:25:37;;;;;;;5.53;3.55;;;;;;;15.99;43.78;101113.72;5088442;28;20066;-20